createdAt,value
2019-04-10T00:01:48.932Z,22.20
2019-04-10T00:04:18.954Z,22.85
2019-04-10T00:06:49.972Z,23.73
2019-04-10T00:09:20.881Z,24.70
2019-04-10T00:11:53.424Z,22.82
2019-04-10T00:14:24.089Z,23.35
2019-04-10T00:16:54.317Z,23.55
2019-04-10T00:19:24.328Z,23.50
2019-04-10T00:21:54.120Z,23.22
2019-04-10T00:24:24.028Z,22.70
2019-04-10T00:26:54.358Z,25.48
2019-04-10T00:29:24.557Z,23.80
2019-04-10T00:31:54.427Z,24.52
2019-04-10T00:34:25.329Z,23.47
2019-04-10T00:36:55.455Z,22.90
2019-04-10T00:39:25.172Z,20.57
2019-04-10T00:41:55.063Z,22.75
2019-04-10T00:44:25.761Z,20.97
2019-04-10T00:46:57.003Z,22.82
2019-04-10T00:49:26.823Z,21.90
2019-04-10T00:51:57.543Z,22.73
2019-04-10T00:54:27.447Z,23.65
2019-04-10T00:56:59.067Z,20.37
2019-04-10T00:59:28.914Z,22.07
2019-04-10T01:01:58.666Z,21.45
2019-04-10T01:04:29.440Z,23.00
2019-04-10T01:07:00.180Z,21.52
2019-04-10T01:09:31.110Z,21.15
2019-04-10T01:12:01.087Z,22.58
2019-04-10T01:14:31.794Z,21.68
2019-04-10T01:17:02.143Z,24.23
2019-04-10T01:19:32.284Z,21.17
2019-04-10T01:22:03.062Z,21.97
2019-04-10T01:24:33.423Z,24.20
2019-04-10T01:27:03.477Z,22.67
2019-04-10T01:29:33.629Z,22.98
2019-04-10T01:32:03.726Z,24.10
2019-04-10T01:34:33.754Z,23.92
2019-04-10T01:37:05.623Z,23.38
2019-04-10T01:39:35.389Z,28.30
2019-04-10T01:42:06.067Z,23.67
2019-04-10T01:44:36.423Z,22.40
2019-04-10T01:47:06.763Z,25.43
2019-04-10T01:49:37.643Z,22.40
2019-04-10T01:52:07.599Z,23.30
2019-04-10T01:54:37.500Z,24.98
2019-04-10T01:57:08.172Z,24.67
2019-04-10T01:59:40.511Z,25.32
2019-04-10T02:02:12.675Z,25.40
2019-04-10T02:04:43.768Z,26.33
2019-04-10T02:07:13.905Z,24.50
2019-04-10T02:09:43.801Z,26.17
2019-04-10T02:12:14.572Z,24.87
2019-04-10T02:14:44.734Z,25.70
2019-04-10T02:17:14.760Z,27.70
2019-04-10T02:19:44.691Z,26.05
2019-04-10T02:22:14.591Z,26.60
2019-04-10T02:24:44.505Z,25.80
2019-04-10T02:27:16.170Z,26.27
2019-04-10T02:29:46.125Z,24.47
2019-04-10T02:32:16.641Z,26.00
2019-04-10T02:34:48.326Z,27.02
2019-04-10T02:37:37.490Z,24.65
2019-04-10T02:40:09.887Z,26.90
2019-04-10T02:42:41.019Z,26.40
2019-04-10T02:45:12.613Z,24.80
2019-04-10T02:47:43.246Z,25.50
2019-04-10T02:50:14.276Z,26.35
2019-04-10T02:52:45.962Z,24.47
2019-04-10T02:55:16.886Z,25.82
2019-04-10T02:57:47.264Z,29.32
2019-04-10T03:00:18.078Z,23.65
2019-04-10T03:02:50.208Z,26.97
2019-04-10T03:05:21.421Z,26.52
2019-04-10T03:07:52.580Z,25.87
2019-04-10T03:10:30.115Z,25.95
2019-04-10T03:12:54.450Z,25.08
2019-04-10T03:15:25.212Z,25.02
2019-04-10T03:17:54.999Z,26.42
2019-04-10T03:20:24.802Z,23.38
2019-04-10T03:22:54.545Z,24.95
2019-04-10T03:25:24.654Z,24.00
2019-04-10T03:27:54.552Z,26.07
2019-04-10T03:30:24.716Z,25.68
2019-04-10T03:33:19.018Z,23.80
2019-04-10T03:35:49.548Z,25.88
2019-04-10T03:38:19.479Z,25.70
2019-04-10T03:40:49.330Z,24.63
2019-04-10T03:43:19.473Z,24.75
2019-04-10T03:45:51.451Z,24.45
2019-04-10T03:48:23.032Z,23.52
2019-04-10T03:50:54.128Z,24.45
2019-04-10T03:53:27.930Z,27.00
2019-04-10T03:55:57.166Z,23.32
2019-04-10T03:58:35.589Z,23.98
2019-04-10T04:01:04.798Z,24.27
2019-04-10T04:03:35.068Z,25.37
2019-04-10T04:06:09.036Z,24.37
2019-04-10T04:08:40.648Z,22.85
2019-04-10T04:11:10.604Z,23.67
2019-04-10T04:13:44.543Z,24.32
2019-04-10T04:16:15.023Z,24.65
2019-04-10T04:18:46.649Z,24.10
2019-04-10T04:21:18.070Z,23.70
2019-04-10T04:23:49.471Z,22.83
2019-04-10T04:26:19.506Z,24.45
2019-04-10T04:28:49.413Z,24.85
2019-04-10T04:31:19.503Z,24.87
2019-04-10T04:33:49.305Z,23.73
2019-04-10T04:36:20.293Z,22.80
2019-04-10T04:38:51.089Z,24.92
2019-04-10T04:41:23.175Z,23.67
2019-04-10T04:43:53.314Z,21.37
2019-04-10T04:46:24.543Z,22.55
2019-04-10T04:48:54.375Z,23.20
2019-04-10T04:51:25.809Z,22.13
2019-04-10T04:53:56.852Z,23.55
2019-04-10T04:56:28.202Z,24.18
2019-04-10T04:58:59.436Z,23.18
2019-04-10T05:01:29.686Z,23.00
2019-04-10T05:04:00.368Z,23.92
2019-04-10T05:06:32.974Z,22.75
2019-04-10T05:09:03.070Z,22.07
2019-04-10T05:11:34.164Z,22.52
2019-04-10T05:14:04.841Z,22.00
2019-04-10T05:16:35.897Z,22.98
2019-04-10T05:19:05.651Z,24.20
2019-04-10T05:21:35.489Z,23.62
2019-04-10T05:24:07.281Z,21.35
2019-04-10T05:26:37.428Z,23.67
2019-04-10T05:29:07.307Z,21.80
2019-04-10T05:31:37.095Z,22.77
2019-04-10T05:34:06.867Z,21.93
2019-04-10T05:36:37.816Z,22.37
2019-04-10T05:39:08.582Z,22.73
2019-04-10T05:41:38.423Z,21.70
2019-04-10T05:44:09.886Z,22.67
2019-04-10T05:46:40.854Z,21.35
2019-04-10T05:49:10.859Z,22.87
2019-04-10T05:51:41.602Z,22.33
2019-04-10T05:54:11.440Z,21.17
2019-04-10T05:56:41.361Z,20.82
2019-04-10T05:59:13.162Z,22.07
2019-04-10T06:01:43.205Z,23.02
2019-04-10T06:04:13.917Z,23.18
2019-04-10T06:06:44.320Z,22.67
2019-04-10T06:09:14.358Z,23.77
2019-04-10T06:11:45.609Z,20.23
2019-04-10T06:14:15.743Z,22.13
2019-04-10T06:16:45.762Z,22.05
2019-04-10T06:19:15.854Z,21.17
2019-04-10T06:21:46.658Z,21.85
2019-04-10T06:24:16.453Z,22.00
2019-04-10T06:26:46.365Z,21.15
2019-04-10T06:29:17.139Z,21.42
2019-04-10T06:31:47.253Z,21.97
2019-04-10T06:34:18.823Z,21.17
2019-04-10T06:36:49.438Z,23.40
2019-04-10T06:39:20.286Z,20.15
2019-04-10T06:41:51.952Z,21.27
2019-04-10T06:44:21.886Z,22.80
2019-04-10T06:46:52.979Z,22.27
2019-04-10T06:49:22.845Z,20.82
2019-04-10T06:51:53.547Z,22.63
2019-04-10T06:54:23.421Z,22.62
2019-04-10T06:56:53.202Z,22.55
2019-04-10T06:59:24.624Z,20.57
2019-04-10T07:01:56.691Z,20.92
2019-04-10T07:04:26.602Z,19.35
2019-04-10T07:07:03.055Z,21.42
2019-04-10T07:09:33.856Z,19.85
2019-04-10T07:12:05.040Z,19.73
2019-04-10T07:14:36.910Z,24.00
2019-04-10T07:17:08.843Z,21.90
2019-04-10T07:19:41.424Z,20.73
2019-04-10T07:22:12.944Z,19.23
2019-04-10T07:24:42.568Z,20.92
2019-04-10T07:27:12.656Z,19.25
2019-04-10T07:29:42.546Z,19.55
2019-04-10T07:32:13.368Z,19.10
2019-04-10T07:34:43.259Z,19.48
2019-04-10T07:37:17.676Z,20.82
2019-04-10T07:39:45.036Z,19.20
2019-04-10T07:42:25.983Z,19.40
2019-04-10T07:44:46.333Z,18.27
2019-04-10T07:47:17.375Z,17.85
2019-04-10T07:49:48.250Z,17.52
2019-04-10T07:52:21.136Z,20.05
2019-04-10T07:54:52.417Z,16.20
2019-04-10T07:57:22.510Z,15.58
2019-04-10T07:59:52.664Z,16.05
2019-04-10T08:02:23.323Z,16.52
2019-04-10T08:04:53.909Z,16.62
2019-04-10T08:07:29.445Z,14.80
2019-04-10T08:09:55.307Z,14.67
2019-04-10T08:12:36.980Z,14.65
2019-04-10T08:14:56.500Z,15.43
2019-04-10T08:17:26.261Z,14.90
2019-04-10T08:19:57.267Z,15.95
2019-04-10T08:22:27.206Z,15.88
2019-04-10T08:24:57.974Z,13.80
2019-04-10T08:27:27.856Z,15.43
2019-04-10T08:29:57.695Z,13.53
2019-04-10T08:32:57.038Z,13.43
2019-04-10T08:35:19.310Z,15.47
2019-04-10T08:37:50.977Z,16.15
2019-04-10T08:40:21.211Z,15.15
2019-04-10T08:42:51.314Z,12.70
2019-04-10T08:45:21.311Z,13.65
2019-04-10T08:47:51.136Z,13.08
2019-04-10T08:50:21.836Z,12.80
2019-04-10T08:52:51.847Z,13.10
2019-04-10T08:55:21.880Z,12.37
2019-04-10T08:57:52.390Z,12.18
2019-04-10T09:00:22.633Z,12.78
2019-04-10T09:02:52.729Z,12.80
2019-04-10T09:05:23.729Z,12.90
2019-04-10T09:07:54.666Z,12.60
2019-04-10T09:10:24.651Z,12.30
2019-04-10T09:12:54.893Z,12.82
2019-04-10T09:15:25.821Z,11.45
2019-04-10T09:17:55.727Z,11.38
2019-04-10T09:20:26.792Z,12.70
2019-04-10T09:23:18.127Z,14.33
2019-04-10T09:25:29.628Z,11.78
2019-04-10T09:28:00.195Z,12.47
2019-04-10T09:30:34.037Z,12.55
2019-04-10T09:33:15.999Z,12.95
2019-04-10T09:35:36.820Z,11.60
2019-04-10T09:38:12.773Z,12.87
2019-04-10T09:40:44.686Z,11.50
2019-04-10T09:43:15.844Z,11.60
2019-04-10T09:45:50.076Z,11.40
2019-04-10T09:48:22.141Z,10.85
2019-04-10T09:50:52.643Z,13.45
2019-04-10T09:53:24.558Z,12.88
2019-04-10T09:55:56.751Z,12.75
2019-04-10T09:58:29.783Z,12.50
2019-04-10T10:01:04.836Z,10.72
2019-04-10T10:03:38.469Z,12.88
2019-04-10T10:06:09.045Z,11.10
2019-04-10T10:08:41.637Z,11.85
2019-04-10T10:11:13.740Z,12.47
2019-04-10T10:13:43.779Z,12.93
2019-04-10T10:16:14.702Z,11.90
2019-04-10T10:18:45.656Z,12.93
2019-04-10T10:21:16.838Z,14.03
2019-04-10T10:23:46.630Z,13.43
2019-04-10T10:26:19.610Z,12.53
2019-04-10T10:28:49.620Z,12.35
2019-04-10T10:31:20.177Z,16.82
2019-04-10T10:33:50.164Z,11.88
2019-04-10T10:36:22.112Z,10.85
2019-04-10T10:39:03.436Z,13.90
2019-04-10T10:41:24.344Z,13.68
2019-04-10T10:43:54.337Z,15.45
2019-04-10T10:46:25.120Z,12.30
2019-04-10T10:48:55.811Z,13.65
2019-04-10T10:51:26.709Z,12.98
2019-04-10T10:54:00.071Z,13.88
2019-04-10T10:56:29.072Z,13.88
2019-04-10T10:58:59.093Z,13.58
2019-04-10T11:01:29.573Z,12.93
2019-04-10T11:03:59.516Z,12.40
2019-04-10T11:06:29.331Z,13.78
2019-04-10T11:08:59.647Z,15.85
2019-04-10T11:11:30.737Z,12.82
2019-04-10T11:14:01.261Z,11.30
2019-04-10T11:16:33.805Z,13.20
2019-04-10T11:19:06.792Z,13.53
2019-04-10T11:21:36.675Z,13.25
2019-04-10T11:24:06.994Z,16.13
2019-04-10T11:26:37.665Z,15.43
2019-04-10T11:29:09.914Z,15.43
2019-04-10T11:31:39.799Z,14.73
2019-04-10T11:34:11.284Z,12.78
2019-04-10T11:36:42.536Z,13.62
2019-04-10T11:39:21.852Z,14.53
2019-04-10T11:41:45.757Z,14.60
2019-04-10T11:44:17.159Z,14.07
2019-04-10T11:46:47.091Z,14.45
2019-04-10T11:49:17.778Z,14.58
2019-04-10T11:51:50.347Z,16.00
2019-04-10T11:54:23.535Z,14.83
2019-04-10T11:56:54.941Z,14.83
2019-04-10T11:59:24.115Z,14.70
2019-04-10T12:01:58.962Z,15.73
2019-04-10T12:04:26.267Z,14.05
2019-04-10T12:06:59.643Z,13.25
2019-04-10T12:12:00.098Z,14.80
2019-04-10T12:14:30.024Z,16.00
2019-04-10T12:16:59.879Z,15.50
2019-04-10T12:19:29.731Z,16.30
2019-04-10T12:21:59.543Z,14.15
2019-04-10T12:24:30.044Z,16.07
2019-04-10T12:27:00.397Z,19.12
2019-04-10T12:29:30.859Z,13.98
2019-04-10T12:32:00.882Z,14.53
2019-04-10T12:34:32.139Z,13.90
2019-04-10T12:37:02.871Z,13.30
2019-04-10T12:39:32.759Z,16.52
2019-04-10T12:42:02.574Z,14.47
2019-04-10T12:44:32.343Z,15.23
2019-04-10T12:47:02.133Z,14.47
2019-04-10T12:49:32.086Z,15.43
2019-04-10T12:52:02.489Z,14.03
2019-04-10T12:54:33.295Z,17.05
2019-04-10T12:57:04.411Z,14.70
2019-04-10T12:59:35.300Z,14.95
2019-04-10T13:02:05.311Z,14.13
2019-04-10T13:04:35.195Z,16.62
2019-04-10T13:07:05.929Z,14.00
2019-04-10T13:09:35.918Z,15.28
2019-04-10T13:12:06.943Z,14.73
2019-04-10T13:14:37.237Z,16.83
2019-04-10T13:17:06.976Z,15.10
2019-04-10T13:19:37.493Z,13.55
2019-04-10T13:22:07.586Z,14.33
2019-04-10T13:24:37.598Z,14.93
2019-04-10T13:27:08.423Z,16.15
2019-04-10T13:29:38.462Z,17.82
2019-04-10T13:32:09.712Z,16.25
2019-04-10T13:34:39.710Z,14.13
2019-04-10T13:37:10.223Z,16.10
2019-04-10T13:39:41.148Z,14.78
2019-04-10T13:42:11.307Z,13.58
2019-04-10T13:44:42.444Z,13.10
2019-04-10T13:47:13.301Z,14.95
2019-04-10T13:49:44.221Z,12.37
2019-04-10T13:52:14.178Z,11.57
2019-04-10T13:54:44.200Z,13.28
2019-04-10T13:57:15.190Z,11.15
2019-04-10T13:59:45.025Z,13.13
2019-04-10T14:02:17.335Z,12.07
2019-04-10T14:04:47.326Z,11.12
2019-04-10T14:07:17.943Z,15.53
2019-04-10T14:09:51.375Z,13.68
2019-04-10T14:12:19.282Z,14.00
2019-04-10T14:14:49.142Z,14.03
2019-04-10T14:17:21.482Z,13.68
2019-04-10T14:19:52.426Z,12.55
2019-04-10T14:22:22.382Z,13.75
2019-04-10T14:24:52.214Z,13.83
2019-04-10T14:27:24.497Z,12.20
2019-04-10T14:29:54.571Z,13.08
2019-04-10T14:32:26.138Z,12.58
2019-04-10T14:34:55.920Z,11.67
2019-04-10T14:37:25.850Z,12.65
2019-04-10T14:39:55.944Z,11.95
2019-04-10T14:42:26.613Z,12.53
2019-04-10T14:44:57.171Z,16.70
2019-04-10T14:47:27.598Z,11.83
2019-04-10T14:49:58.017Z,12.85
2019-04-10T14:52:28.368Z,12.10
2019-04-10T14:54:59.808Z,18.50
2019-04-10T14:57:30.710Z,12.13
2019-04-10T15:00:00.605Z,11.40
2019-04-10T15:02:32.700Z,13.53
2019-04-10T15:05:03.695Z,10.85
2019-04-10T15:07:35.215Z,12.75
2019-04-10T15:10:06.190Z,13.20
2019-04-10T15:12:36.204Z,12.88
2019-04-10T15:15:07.819Z,11.20
2019-04-10T15:17:38.093Z,14.20
2019-04-10T15:20:08.971Z,11.30
2019-04-10T15:22:39.980Z,12.70
2019-04-10T15:25:11.007Z,14.35
2019-04-10T15:27:41.759Z,12.82
2019-04-10T15:30:12.525Z,12.03
2019-04-10T15:32:42.459Z,9.98
2019-04-10T15:35:12.581Z,10.38
2019-04-10T15:37:42.427Z,12.10
2019-04-10T15:40:19.822Z,11.03
2019-04-10T15:42:44.042Z,9.48
2019-04-10T15:45:14.806Z,11.10
2019-04-10T15:47:52.608Z,11.18
2019-04-10T15:50:18.091Z,13.27
2019-04-10T15:52:47.991Z,11.48
2019-04-10T15:55:17.848Z,11.40
2019-04-10T15:57:53.774Z,7.95
2019-04-10T16:00:19.353Z,14.10
2019-04-10T16:02:49.223Z,12.15
2019-04-10T16:05:19.514Z,11.27
2019-04-10T16:07:51.090Z,11.50
2019-04-10T16:10:29.005Z,12.68
2019-04-10T16:13:16.860Z,12.33
2019-04-10T16:15:47.144Z,11.15
2019-04-10T16:18:24.340Z,11.90
2019-04-10T16:20:55.252Z,9.67
2019-04-10T16:23:29.792Z,12.58
2019-04-10T16:26:00.747Z,11.53
2019-04-10T16:28:31.476Z,9.83
2019-04-10T16:31:01.434Z,10.45
2019-04-10T16:33:31.508Z,11.22
2019-04-10T16:36:01.512Z,9.80
2019-04-10T16:38:31.320Z,8.90
2019-04-10T16:41:02.682Z,10.60
2019-04-10T16:43:32.838Z,9.78
2019-04-10T16:46:02.885Z,10.57
2019-04-10T16:48:33.723Z,13.07
2019-04-10T16:51:03.753Z,10.08
2019-04-10T16:53:34.136Z,11.03
2019-04-10T16:56:05.313Z,9.58
2019-04-10T16:58:35.104Z,11.20
2019-04-10T17:01:06.383Z,10.23
2019-04-10T17:03:36.363Z,10.00
2019-04-10T17:06:06.256Z,7.58
2019-04-10T17:08:37.347Z,10.07
2019-04-10T17:11:07.623Z,7.85
2019-04-10T17:13:40.178Z,9.95
2019-04-10T17:16:11.470Z,8.65
2019-04-10T17:18:41.405Z,8.98
2019-04-10T17:21:11.323Z,9.43
2019-04-10T17:23:41.261Z,9.53
2019-04-10T17:26:11.167Z,9.70
2019-04-10T17:28:41.056Z,7.17
2019-04-10T17:31:11.308Z,10.18
2019-04-10T17:33:41.891Z,8.03
2019-04-10T17:36:12.023Z,7.40
2019-04-10T17:38:42.816Z,9.20
2019-04-10T17:41:12.864Z,8.20
2019-04-10T17:43:43.445Z,9.73
2019-04-10T17:46:13.383Z,8.58
2019-04-10T17:48:44.151Z,9.40
2019-04-10T17:51:14.207Z,11.38
2019-04-10T17:53:45.289Z,8.40
2019-04-10T17:56:15.891Z,8.83
2019-04-10T17:58:45.752Z,9.38
2019-04-10T18:01:17.148Z,6.62
2019-04-10T18:03:53.190Z,6.92
2019-04-10T18:06:19.383Z,7.10
2019-04-10T18:08:49.377Z,9.83
2019-04-10T18:11:20.103Z,12.43
2019-04-10T18:13:51.094Z,7.90
2019-04-10T18:16:22.142Z,9.38
2019-04-10T18:18:51.891Z,6.97
2019-04-10T18:21:22.414Z,7.17
2019-04-10T18:23:52.517Z,10.47
2019-04-10T18:26:23.546Z,10.97
2019-04-10T18:28:54.117Z,7.47
2019-04-10T18:31:25.533Z,8.30
2019-04-10T18:33:55.532Z,8.33
2019-04-10T18:36:25.423Z,8.03
2019-04-10T18:38:55.163Z,8.78
2019-04-10T18:41:24.996Z,9.65
2019-04-10T18:43:54.857Z,7.85
2019-04-10T18:46:25.675Z,7.97
2019-04-10T18:48:55.524Z,10.33
2019-04-10T18:51:25.802Z,7.22
2019-04-10T18:53:55.856Z,8.37
2019-04-10T18:56:25.666Z,9.38
2019-04-10T18:58:58.149Z,8.50
2019-04-10T19:01:32.682Z,8.00
2019-04-10T19:04:05.940Z,8.88
2019-04-10T19:06:44.770Z,6.95
2019-04-10T19:09:24.414Z,8.38
2019-04-10T19:11:48.310Z,8.53
2019-04-10T19:14:18.470Z,7.10
2019-04-10T19:16:48.397Z,6.53
2019-04-10T19:19:18.453Z,8.13
2019-04-10T19:21:48.508Z,11.00
2019-04-10T19:24:19.695Z,7.25
2019-04-10T19:26:49.595Z,7.75
2019-04-10T19:29:19.360Z,8.17
2019-04-10T19:31:51.920Z,9.20
2019-04-10T19:34:23.438Z,7.03
2019-04-10T19:36:54.463Z,8.10
2019-04-10T19:39:24.487Z,8.93
2019-04-10T19:41:55.670Z,8.85
2019-04-10T19:44:26.749Z,9.83
2019-04-10T19:46:57.827Z,8.63
2019-04-10T19:49:28.187Z,8.25
2019-04-10T19:52:00.066Z,10.35
2019-04-10T19:54:30.223Z,8.53
2019-04-10T19:57:01.367Z,9.70
2019-04-10T19:59:33.255Z,7.92
2019-04-10T20:02:03.391Z,9.70
2019-04-10T20:04:33.275Z,9.88
2019-04-10T20:07:03.119Z,9.17
2019-04-10T20:09:32.949Z,5.80
2019-04-10T20:12:02.793Z,8.98
2019-04-10T20:14:32.637Z,8.85
2019-04-10T20:17:02.423Z,9.57
2019-04-10T20:19:32.770Z,7.22
2019-04-10T20:22:02.674Z,9.27
2019-04-10T20:24:32.626Z,7.28
2019-04-10T20:27:03.474Z,8.80
2019-04-10T20:29:33.460Z,8.63
2019-04-10T20:32:03.907Z,9.90
2019-04-10T20:34:33.764Z,8.83
2019-04-10T20:37:07.671Z,8.13
2019-04-10T20:39:34.905Z,9.35
2019-04-10T20:42:05.686Z,7.65
2019-04-10T20:44:36.542Z,7.17
2019-04-10T20:47:06.793Z,8.70
2019-04-10T20:49:42.499Z,8.20
2019-04-10T20:52:13.219Z,7.83
2019-04-10T20:54:43.384Z,8.23
2019-04-10T20:57:13.155Z,7.83
2019-04-10T20:59:42.970Z,8.95
2019-04-10T21:02:13.769Z,11.43
2019-04-10T21:04:54.472Z,7.10
2019-04-10T21:07:16.025Z,8.58
2019-04-10T21:09:45.999Z,9.35
2019-04-10T21:12:20.248Z,7.22
2019-04-10T21:14:47.990Z,7.97
2019-04-10T21:17:17.814Z,9.73
2019-04-10T21:19:47.598Z,8.73
2019-04-10T21:22:17.325Z,9.27
2019-04-10T21:24:47.154Z,6.95
2019-04-10T21:27:16.872Z,8.93
2019-04-10T21:29:51.319Z,6.87
2019-04-10T21:32:32.818Z,7.23
2019-04-10T21:35:04.224Z,7.47
2019-04-10T21:37:35.148Z,9.53
2019-04-10T21:40:06.017Z,6.85
2019-04-10T21:42:36.986Z,9.53
2019-04-10T21:45:07.524Z,8.65
2019-04-10T21:47:37.633Z,8.33
2019-04-10T21:50:08.878Z,6.47
2019-04-10T21:52:39.303Z,6.37
2019-04-10T21:55:09.209Z,5.58
2019-04-10T21:57:39.026Z,7.37
2019-04-10T22:00:10.103Z,7.83
2019-04-10T22:02:45.135Z,7.37
2019-04-10T22:05:16.475Z,7.35
2019-04-10T22:07:48.268Z,6.83
2019-04-10T22:10:34.996Z,5.37
2019-04-10T22:13:05.890Z,6.55
2019-04-10T22:15:41.375Z,6.45
2019-04-10T22:18:11.305Z,6.40
2019-04-10T22:20:41.676Z,6.33
2019-04-10T22:23:11.729Z,8.38
2019-04-10T22:25:41.683Z,5.97
2019-04-10T22:28:12.716Z,7.30
2019-04-10T22:30:43.670Z,6.83
2019-04-10T22:33:13.973Z,7.03
2019-04-10T22:35:44.283Z,6.80
2019-04-10T22:38:15.168Z,4.67
2019-04-10T22:40:46.257Z,4.40
2019-04-10T22:43:16.223Z,6.10
2019-04-10T22:45:46.643Z,6.92
2019-04-10T22:48:16.853Z,5.65
2019-04-10T22:50:47.272Z,6.12
2019-04-10T22:53:17.295Z,5.58
2019-04-10T22:55:47.150Z,5.28
2019-04-10T22:58:17.126Z,5.03
2019-04-10T23:00:48.326Z,5.22
2019-04-10T23:03:18.479Z,5.35
2019-04-10T23:05:48.945Z,10.30
2019-04-10T23:08:19.754Z,5.62
2019-04-10T23:10:49.606Z,6.92
2019-04-10T23:13:21.521Z,4.78
2019-04-10T23:15:52.607Z,4.83
2019-04-10T23:18:23.426Z,4.90
2019-04-10T23:20:54.232Z,5.12
2019-04-10T23:23:25.242Z,4.12
2019-04-10T23:25:56.357Z,3.60
2019-04-10T23:28:27.247Z,4.87
2019-04-10T23:30:57.343Z,5.37
2019-04-10T23:33:28.110Z,4.53
2019-04-10T23:35:58.096Z,4.80
2019-04-10T23:38:27.861Z,5.30
2019-04-10T23:40:57.588Z,6.22
2019-04-10T23:43:27.469Z,6.33
2019-04-10T23:45:57.823Z,4.50
2019-04-10T23:48:28.650Z,4.72
2019-04-10T23:50:58.752Z,3.17
2019-04-10T23:53:28.802Z,5.40
2019-04-10T23:55:58.824Z,6.78
2019-04-10T23:58:29.682Z,6.80
